Terminal Aerodrome Forecast
Issued by NWS

Home | Current Version | Previous Version | Text Only | Print | Product List | Glossary On
Versions: 1 2 3 4 5 6 7 8 9 10 11 12 13
934
FTAK31 PAJN 301824 AAA
TAFAWG
TAF AMD
PAWG 301824Z 3018/0118 10009KT P6SM VCSH BKN100 WS020/06035KT
     FM302300 06012KT P6SM SKC
     FM010400 10009KT P6SM SKC
      AMD LTD TO CLD VIS AND WIND 0106/0115=

USA.gov is the U.S. government's official web portal to all federal, state and local government web resources and services.